sensor_id;sensor_type;location;lat;lon;timestamp;pressure;altitude;pressure_sealevel;temperature;humidity
59315;BME280;46521;50.160;20.802;2022-10-24T00:07:14;99776.89;;;10.62;73.85
59315;BME280;46521;50.160;20.802;2022-10-24T00:17:16;99762.69;;;10.63;73.90
59315;BME280;46521;50.160;20.802;2022-10-24T00:27:17;99755.73;;;10.62;74.16
59315;BME280;46521;50.160;20.802;2022-10-24T00:37:19;99770.95;;;10.60;74.45
59315;BME280;46521;50.160;20.802;2022-10-24T00:47:27;99771.60;;;10.62;74.59
59315;BME280;46521;50.160;20.802;2022-10-24T00:57:44;99779.38;;;10.64;74.24
59315;BME280;46521;50.160;20.802;2022-10-24T01:08:23;99764.35;;;10.64;74.29
59315;BME280;46521;50.160;20.802;2022-10-24T01:18:41;99744.17;;;10.63;74.20
59315;BME280;46521;50.160;20.802;2022-10-24T01:39:11;99740.20;;;10.51;74.41
59315;BME280;46521;50.160;20.802;2022-10-24T01:49:18;99744.52;;;10.52;74.67
59315;BME280;46521;50.160;20.802;2022-10-24T02:09:29;99723.03;;;10.55;74.86
59315;BME280;46521;50.160;20.802;2022-10-24T02:19:33;99714.77;;;10.58;74.90
59315;BME280;46521;50.160;20.802;2022-10-24T02:29:42;99715.09;;;10.55;75.11
59315;BME280;46521;50.160;20.802;2022-10-24T02:39:48;99704.35;;;10.57;74.96
59315;BME280;46521;50.160;20.802;2022-10-24T02:49:50;99700.20;;;10.54;74.83
59315;BME280;46521;50.160;20.802;2022-10-24T02:59:52;99706.68;;;10.52;75.37
59315;BME280;46521;50.160;20.802;2022-10-24T03:09:53;99687.32;;;10.51;75.46
59315;BME280;46521;50.160;20.802;2022-10-24T03:19:55;99677.42;;;10.53;75.70
59315;BME280;46521;50.160;20.802;2022-10-24T03:29:56;99670.47;;;10.52;75.42
59315;BME280;46521;50.160;20.802;2022-10-24T03:39:58;99664.00;;;10.55;75.53
59315;BME280;46521;50.160;20.802;2022-10-24T03:49:59;99651.63;;;10.55;76.16
59315;BME280;46521;50.160;20.802;2022-10-24T04:00:01;99638.07;;;10.58;76.16
59315;BME280;46521;50.160;20.802;2022-10-24T04:10:04;99646.66;;;10.60;75.99
59315;BME280;46521;50.160;20.802;2022-10-24T04:20:06;99645.81;;;10.68;75.85
59315;BME280;46521;50.160;20.802;2022-10-24T04:30:09;99644.80;;;10.77;77.00
59315;BME280;46521;50.160;20.802;2022-10-24T04:40:11;99638.02;;;10.83;76.34
59315;BME280;46521;50.160;20.802;2022-10-24T04:50:12;99629.74;;;10.86;76.48
59315;BME280;46521;50.160;20.802;2022-10-24T05:00:14;99656.51;;;10.91;76.76
59315;BME280;46521;50.160;20.802;2022-10-24T05:10:16;99638.29;;;10.96;76.46
59315;BME280;46521;50.160;20.802;2022-10-24T05:20:17;99639.78;;;10.99;76.54
59315;BME280;46521;50.160;20.802;2022-10-24T05:30:19;99648.70;;;10.98;76.60
59315;BME280;46521;50.160;20.802;2022-10-24T05:40:20;99642.90;;;11.03;76.54
59315;BME280;46521;50.160;20.802;2022-10-24T05:50:22;99637.56;;;11.11;76.36
59315;BME280;46521;50.160;20.802;2022-10-24T06:00:23;99626.29;;;11.17;76.85
59315;BME280;46521;50.160;20.802;2022-10-24T06:10:24;99636.19;;;11.23;76.43
59315;BME280;46521;50.160;20.802;2022-10-24T06:20:26;99654.68;;;11.31;76.48
59315;BME280;46521;50.160;20.802;2022-10-24T06:30:27;99663.08;;;11.43;76.66
59315;BME280;46521;50.160;20.802;2022-10-24T06:40:28;99669.12;;;11.60;76.73
59315;BME280;46521;50.160;20.802;2022-10-24T06:50:30;99675.32;;;11.76;76.64
59315;BME280;46521;50.160;20.802;2022-10-24T07:00:36;99678.52;;;11.94;76.59
59315;BME280;46521;50.160;20.802;2022-10-24T07:10:37;99701.29;;;12.12;76.91
59315;BME280;46521;50.160;20.802;2022-10-24T07:20:39;99705.81;;;12.26;76.56
59315;BME280;46521;50.160;20.802;2022-10-24T07:30:42;99708.27;;;12.51;77.07
59315;BME280;46521;50.160;20.802;2022-10-24T07:40:44;99703.74;;;12.74;76.75
59315;BME280;46521;50.160;20.802;2022-10-24T07:50:46;99700.27;;;12.89;76.70
59315;BME280;46521;50.160;20.802;2022-10-24T08:00:47;99693.14;;;13.04;77.01
59315;BME280;46521;50.160;20.802;2022-10-24T08:10:49;99691.47;;;13.18;76.46
59315;BME280;46521;50.160;20.802;2022-10-24T08:20:58;99683.88;;;13.30;76.50
59315;BME280;46521;50.160;20.802;2022-10-24T08:31:06;99683.36;;;13.71;76.95
59315;BME280;46521;50.160;20.802;2022-10-24T08:41:15;99668.27;;;14.65;76.69
59315;BME280;46521;50.160;20.802;2022-10-24T09:02:25;99646.53;;;16.13;74.69
59315;BME280;46521;50.160;20.802;2022-10-24T09:12:26;99653.86;;;16.78;73.46
59315;BME280;46521;50.160;20.802;2022-10-24T09:22:31;99647.89;;;16.82;72.41
59315;BME280;46521;50.160;20.802;2022-10-24T09:32:35;99627.39;;;16.69;72.16
59315;BME280;46521;50.160;20.802;2022-10-24T09:42:37;99605.98;;;16.96;71.59
59315;BME280;46521;50.160;20.802;2022-10-24T09:52:39;99648.72;;;16.89;70.83
59315;BME280;46521;50.160;20.802;2022-10-24T10:02:56;99636.73;;;17.12;71.11
59315;BME280;46521;50.160;20.802;2022-10-24T10:13:05;99616.55;;;17.23;70.21
59315;BME280;46521;50.160;20.802;2022-10-24T10:23:30;99635.05;;;17.18;70.06
59315;BME280;46521;50.160;20.802;2022-10-24T10:33:48;99623.98;;;17.14;70.08
59315;BME280;46521;50.160;20.802;2022-10-24T10:44:13;99621.97;;;17.03;70.28
59315;BME280;46521;50.160;20.802;2022-10-24T11:14:49;99617.58;;;16.36;70.23
59315;BME280;46521;50.160;20.802;2022-10-24T11:24:59;99611.83;;;16.26;70.49
59315;BME280;46521;50.160;20.802;2022-10-24T11:35:13;99607.52;;;16.12;70.57
59315;BME280;46521;50.160;20.802;2022-10-24T11:45:19;99600.34;;;16.06;70.46
59315;BME280;46521;50.160;20.802;2022-10-24T11:55:31;99588.04;;;16.11;70.72
59315;BME280;46521;50.160;20.802;2022-10-24T12:16:17;99588.22;;;16.23;70.85
59315;BME280;46521;50.160;20.802;2022-10-24T12:26:33;99590.85;;;16.50;71.27
59315;BME280;46521;50.160;20.802;2022-10-24T12:37:03;99585.89;;;16.67;71.26
59315;BME280;46521;50.160;20.802;2022-10-24T12:47:26;99577.85;;;16.73;71.29
59315;BME280;46521;50.160;20.802;2022-10-24T12:57:36;99551.32;;;16.92;71.46
59315;BME280;46521;50.160;20.802;2022-10-24T13:07:43;99547.97;;;17.10;70.93
59315;BME280;46521;50.160;20.802;2022-10-24T13:38:28;99522.68;;;17.44;70.08
59315;BME280;46521;50.160;20.802;2022-10-24T13:48:32;99529.70;;;17.39;70.01
59315;BME280;46521;50.160;20.802;2022-10-24T13:58:38;99530.98;;;17.29;70.53
59315;BME280;46521;50.160;20.802;2022-10-24T14:08:47;99535.58;;;17.16;70.24
59315;BME280;46521;50.160;20.802;2022-10-24T14:18:49;99539.53;;;17.06;70.12
59315;BME280;46521;50.160;20.802;2022-10-24T14:28:53;99533.22;;;16.94;69.78
59315;BME280;46521;50.160;20.802;2022-10-24T14:38:59;99537.20;;;16.71;69.88
59315;BME280;46521;50.160;20.802;2022-10-24T14:49:19;99545.08;;;16.46;69.92
59315;BME280;46521;50.160;20.802;2022-10-24T14:59:33;99548.61;;;16.20;69.91
59315;BME280;46521;50.160;20.802;2022-10-24T15:09:58;99559.50;;;15.92;69.96
59315;BME280;46521;50.160;20.802;2022-10-24T15:20:01;99566.23;;;15.67;70.49
59315;BME280;46521;50.160;20.802;2022-10-24T15:30:09;99563.13;;;15.44;70.60
59315;BME280;46521;50.160;20.802;2022-10-24T15:40:18;99566.75;;;15.23;70.85
59315;BME280;46521;50.160;20.802;2022-10-24T15:50:22;99567.94;;;15.07;70.97
59315;BME280;46521;50.160;20.802;2022-10-24T16:00:24;99569.30;;;14.89;71.25
59315;BME280;46521;50.160;20.802;2022-10-24T16:10:26;99569.20;;;14.69;71.18
59315;BME280;46521;50.160;20.802;2022-10-24T16:20:28;99574.18;;;14.51;71.66
59315;BME280;46521;50.160;20.802;2022-10-24T16:30:31;99585.18;;;14.41;71.65
59315;BME280;46521;50.160;20.802;2022-10-24T16:40:37;99583.68;;;14.32;71.78
59315;BME280;46521;50.160;20.802;2022-10-24T16:50:41;99590.93;;;14.16;72.34
59315;BME280;46521;50.160;20.802;2022-10-24T17:00:45;99578.13;;;13.98;72.52
59315;BME280;46521;50.160;20.802;2022-10-24T17:10:47;99597.22;;;13.87;72.33
59315;BME280;46521;50.160;20.802;2022-10-24T17:20:48;99608.19;;;13.77;72.56
59315;BME280;46521;50.160;20.802;2022-10-24T17:30:50;99603.56;;;13.64;72.27
59315;BME280;46521;50.160;20.802;2022-10-24T17:40:52;99606.55;;;13.55;72.63
59315;BME280;46521;50.160;20.802;2022-10-24T17:50:56;99589.88;;;13.46;72.37
59315;BME280;46521;50.160;20.802;2022-10-24T18:00:59;99587.79;;;13.41;73.00
59315;BME280;46521;50.160;20.802;2022-10-24T18:11:04;99587.72;;;13.34;73.36
59315;BME280;46521;50.160;20.802;2022-10-24T18:21:11;99572.13;;;13.31;73.71
59315;BME280;46521;50.160;20.802;2022-10-24T18:31:24;99575.78;;;13.30;73.44
59315;BME280;46521;50.160;20.802;2022-10-24T18:41:35;99569.66;;;13.30;73.46
59315;BME280;46521;50.160;20.802;2022-10-24T18:52:28;99568.38;;;13.26;73.43
59315;BME280;46521;50.160;20.802;2022-10-24T19:02:29;99564.22;;;13.16;73.45
59315;BME280;46521;50.160;20.802;2022-10-24T19:12:31;99559.55;;;13.04;73.17
59315;BME280;46521;50.160;20.802;2022-10-24T19:22:33;99553.73;;;12.93;73.37
59315;BME280;46521;50.160;20.802;2022-10-24T19:32:34;99559.70;;;12.80;74.05
59315;BME280;46521;50.160;20.802;2022-10-24T19:42:36;99557.86;;;12.66;73.76
59315;BME280;46521;50.160;20.802;2022-10-24T19:52:38;99539.03;;;12.61;74.11
59315;BME280;46521;50.160;20.802;2022-10-24T20:02:40;99543.05;;;12.57;74.46
59315;BME280;46521;50.160;20.802;2022-10-24T20:12:41;99549.74;;;12.53;74.48
59315;BME280;46521;50.160;20.802;2022-10-24T20:22:43;99559.72;;;12.51;74.37
59315;BME280;46521;50.160;20.802;2022-10-24T20:32:44;99565.11;;;12.57;74.65
59315;BME280;46521;50.160;20.802;2022-10-24T20:42:45;99555.77;;;12.61;75.19
59315;BME280;46521;50.160;20.802;2022-10-24T20:52:50;99548.35;;;12.57;75.09
59315;BME280;46521;50.160;20.802;2022-10-24T21:02:52;99559.06;;;12.49;74.42
59315;BME280;46521;50.160;20.802;2022-10-24T21:12:53;99546.26;;;12.37;74.39
59315;BME280;46521;50.160;20.802;2022-10-24T21:22:54;99549.27;;;12.34;74.48
59315;BME280;46521;50.160;20.802;2022-10-24T21:32:56;99559.84;;;12.04;74.74
59315;BME280;46521;50.160;20.802;2022-10-24T21:42:59;99569.63;;;11.81;75.30
59315;BME280;46521;50.160;20.802;2022-10-24T21:53:00;99559.38;;;11.78;75.24
59315;BME280;46521;50.160;20.802;2022-10-24T22:03:02;99567.44;;;11.84;74.91
59315;BME280;46521;50.160;20.802;2022-10-24T22:13:03;99574.03;;;11.88;75.32
59315;BME280;46521;50.160;20.802;2022-10-24T22:23:05;99578.83;;;11.93;75.41
59315;BME280;46521;50.160;20.802;2022-10-24T22:33:15;99586.25;;;11.98;75.98
59315;BME280;46521;50.160;20.802;2022-10-24T22:43:17;99577.09;;;12.00;75.73
59315;BME280;46521;50.160;20.802;2022-10-24T22:53:21;99596.67;;;11.99;76.83
59315;BME280;46521;50.160;20.802;2022-10-24T23:13:40;99594.22;;;12.13;76.52
59315;BME280;46521;50.160;20.802;2022-10-24T23:23:42;99582.90;;;12.19;76.74
59315;BME280;46521;50.160;20.802;2022-10-24T23:33:44;99587.84;;;12.22;77.40
